Time;durP1;ratioP1;P1;durP2;ratioP2;P2;SDS_P1;SDS_P2;PMS_P1;PMS_P2;Temp;Humidity;BMP_temperature;BMP_pressure;BME280_temperature;BME280_humidity;BME280_pressure;Samples;Min_cycle;Max_cycle;Signal;HPM_P1;HPM_P2
2023/06/07 00:02:11;;;;;;;7.18;6.57;;;23.20;93.80;;;;;;6323888;27;88390;-72
2023/06/07 00:05:14;;;;;;;7.15;6.55;;;23.20;93.80;;;;;;6317488;27;89061;-72
2023/06/07 00:08:18;;;;;;;7.88;7.07;;;23.20;93.70;;;;;;6317327;27;89096;-72
2023/06/07 00:11:21;;;;;;;7.45;6.85;;;23.20;93.60;;;;;;6313587;27;91703;-72
2023/06/07 00:14:23;;;;;;;8.18;7.20;;;23.30;93.60;;;;;;6320638;27;89064;-71
2023/06/07 00:17:27;;;;;;;8.15;7.30;;;23.20;93.60;;;;;;6317179;27;89128;-72
2023/06/07 00:20:30;;;;;;;8.02;7.22;;;23.20;93.50;;;;;;6318822;27;89170;-72
2023/06/07 00:23:32;;;;;;;7.95;7.25;;;23.20;93.40;;;;;;6328182;27;89140;-72
2023/06/07 00:26:34;;;;;;;8.32;7.28;;;23.20;93.40;;;;;;6319537;27;89086;-72
2023/06/07 00:29:36;;;;;;;7.72;7.05;;;23.20;93.40;;;;;;6321934;27;87976;-72
2023/06/07 00:32:39;;;;;;;8.10;7.40;;;23.20;93.30;;;;;;6316121;27;87239;-71
2023/06/07 00:35:41;;;;;;;8.77;7.97;;;23.20;93.30;;;;;;6325912;27;89044;-72
2023/06/07 00:38:43;;;;;;;8.23;7.43;;;23.20;93.20;;;;;;6309984;27;89024;-71
2023/06/07 00:41:45;;;;;;;8.15;7.45;;;23.10;93.10;;;;;;6318987;27;89947;-72
2023/06/07 00:44:47;;;;;;;8.32;7.10;;;23.10;93.00;;;;;;6310672;27;89096;-71
2023/06/07 00:47:51;;;;;;;8.20;7.40;;;23.10;93.00;;;;;;6339466;27;89109;-71
2023/06/07 00:50:53;;;;;;;8.25;7.55;;;23.10;93.00;;;;;;6318431;27;88998;-71
2023/06/07 00:53:59;;;;;;;8.32;7.50;;;23.10;92.90;;;;;;6329185;27;88331;-71
2023/06/07 00:57:01;;;;;;;8.68;7.90;;;23.10;92.80;;;;;;6316413;27;89345;-72
2023/06/07 01:00:05;;;;;;;8.93;8.07;;;23.10;92.80;;;;;;6310722;27;87992;-71
2023/06/07 01:03:09;;;;;;;9.50;8.50;;;23.10;92.80;;;;;;6312415;27;89784;-72
2023/06/07 01:06:13;;;;;;;8.95;8.15;;;23.10;92.70;;;;;;6306314;27;88999;-72
2023/06/07 01:09:16;;;;;;;8.98;8.13;;;23.10;92.80;;;;;;6306839;27;88808;-72
2023/06/07 01:12:20;;;;;;;9.18;8.38;;;23.10;92.70;;;;;;6313669;27;89967;-72
2023/06/07 01:15:23;;;;;;;8.85;8.05;;;23.10;92.60;;;;;;6320117;27;88965;-72
2023/06/07 01:18:27;;;;;;;9.48;8.57;;;23.10;92.70;;;;;;6313992;27;88919;-71
2023/06/07 01:21:29;;;;;;;9.70;8.80;;;23.10;92.60;;;;;;6317180;27;89029;-71
2023/06/07 01:24:35;;;;;;;8.98;8.18;;;23.10;92.60;;;;;;6318639;27;89147;-71
2023/06/07 01:27:40;;;;;;;9.15;8.25;;;23.10;92.60;;;;;;6319489;27;89052;-72
2023/06/07 01:30:42;;;;;;;8.25;7.55;;;23.10;92.60;;;;;;6326912;27;89091;-71
2023/06/07 01:33:44;;;;;;;9.02;8.23;;;23.10;92.60;;;;;;6306617;27;88278;-72
2023/06/07 01:36:48;;;;;;;9.88;8.88;;;23.10;92.60;;;;;;6311790;27;89506;-72
2023/06/07 01:39:53;;;;;;;9.15;8.27;;;23.10;92.50;;;;;;6317431;27;89135;-71
2023/06/07 01:42:56;;;;;;;9.35;8.48;;;23.10;92.50;;;;;;6316788;27;90125;-71
2023/06/07 01:45:59;;;;;;;9.88;8.88;;;23.10;92.50;;;;;;6326566;27;88012;-73
2023/06/07 01:49:02;;;;;;;9.77;8.88;;;23.10;92.40;;;;;;6317072;27;89083;-71
2023/06/07 01:52:05;;;;;;;10.00;9.00;;;23.10;92.40;;;;;;6316777;27;88964;-71
2023/06/07 01:55:09;;;;;;;9.20;8.30;;;23.10;92.30;;;;;;6332493;27;89526;-72
2023/06/07 01:58:30;;;;;;;9.07;8.27;;;23.10;92.30;;;;;;6330723;27;89116;-72
2023/06/07 02:01:39;;;;;;;9.57;8.68;;;23.00;92.30;;;;;;6314045;27;89159;-72
2023/06/07 02:04:45;;;;;;;10.07;9.05;;;23.10;92.30;;;;;;6321202;27;88655;-72
2023/06/07 02:07:50;;;;;;;9.60;8.70;;;23.00;92.20;;;;;;6331272;27;89031;-71
2023/06/07 02:10:54;;;;;;;8.98;8.18;;;23.00;92.20;;;;;;6336213;27;89181;-72
2023/06/07 02:13:57;;;;;;;9.30;8.40;;;23.10;92.20;;;;;;6332357;27;90212;-71
2023/06/07 02:16:59;;;;;;;9.50;8.70;;;23.00;92.20;;;;;;6320749;27;87996;-72
2023/06/07 02:20:01;;;;;;;9.48;8.57;;;23.00;92.20;;;;;;6321596;27;90502;-71
2023/06/07 02:23:03;;;;;;;9.57;8.68;;;23.00;92.20;;;;;;6326365;27;88309;-72
2023/06/07 02:26:06;;;;;;;9.45;8.55;;;23.00;92.20;;;;;;6318557;27;89310;-71
2023/06/07 02:29:08;;;;;;;9.95;9.00;;;23.00;92.10;;;;;;6319958;27;88995;-72
2023/06/07 02:32:10;;;;;;;9.93;9.00;;;23.00;92.10;;;;;;6326266;27;89177;-72
2023/06/07 02:35:13;;;;;;;9.52;8.63;;;23.00;92.10;;;;;;6321532;27;88377;-72
2023/06/07 02:38:15;;;;;;;9.95;8.98;;;23.00;92.00;;;;;;6328569;27;89047;-72
2023/06/07 02:41:18;;;;;;;9.90;9.00;;;23.00;92.00;;;;;;6327465;27;89073;-72
2023/06/07 02:44:20;;;;;;;10.10;9.07;;;23.00;92.00;;;;;;6302853;27;90036;-72
2023/06/07 02:47:22;;;;;;;9.70;8.80;;;23.00;92.00;;;;;;6327055;27;89392;-72
2023/06/07 02:50:24;;;;;;;10.18;9.18;;;23.00;92.00;;;;;;6314758;27;89066;-71
2023/06/07 02:53:27;;;;;;;12.05;9.77;;;23.00;92.10;;;;;;6326308;27;88934;-72
2023/06/07 02:56:32;;;;;;;9.90;9.00;;;23.00;92.10;;;;;;6330464;27;88991;-71
2023/06/07 02:59:34;;;;;;;9.90;9.00;;;23.00;92.10;;;;;;6318002;27;89081;-71
2023/06/07 03:02:36;;;;;;;9.70;8.80;;;23.00;92.10;;;;;;6328629;27;89327;-72
2023/06/07 03:05:40;;;;;;;9.68;8.68;;;23.00;92.10;;;;;;6313445;27;88852;-72
2023/06/07 03:08:42;;;;;;;9.70;8.80;;;22.90;92.10;;;;;;6322392;27;89137;-73
2023/06/07 03:11:46;;;;;;;9.00;8.20;;;23.00;92.10;;;;;;6319824;27;89092;-72
2023/06/07 03:14:48;;;;;;;9.50;8.60;;;23.00;92.00;;;;;;6323782;27;90090;-71
2023/06/07 03:17:50;;;;;;;9.02;8.23;;;23.00;92.10;;;;;;6314174;27;88997;-71
2023/06/07 03:20:52;;;;;;;10.07;9.07;;;23.00;92.00;;;;;;6329410;27;88971;-72
2023/06/07 03:23:54;;;;;;;9.63;8.43;;;23.00;92.10;;;;;;6309095;27;89036;-71
2023/06/07 03:26:59;;;;;;;10.05;9.15;;;23.00;92.00;;;;;;6322508;27;89277;-71
2023/06/07 03:30:01;;;;;;;9.45;8.60;;;23.00;92.00;;;;;;6325930;27;89203;-71
2023/06/07 03:33:03;;;;;;;9.15;8.35;;;23.00;92.00;;;;;;6321300;27;89050;-71
2023/06/07 03:36:07;;;;;;;9.80;8.80;;;22.90;92.00;;;;;;6329836;27;88350;-71
2023/06/07 03:39:09;;;;;;;8.93;8.10;;;23.00;92.00;;;;;;6318685;27;88592;-71
2023/06/07 03:42:13;;;;;;;9.10;8.30;;;23.00;92.00;;;;;;6329033;27;89352;-71
2023/06/07 03:45:15;;;;;;;8.90;8.10;;;22.90;92.00;;;;;;6308822;27;89976;-72
2023/06/07 03:48:17;;;;;;;9.30;8.50;;;23.00;92.00;;;;;;6308373;27;89105;-71
2023/06/07 03:51:20;;;;;;;8.93;8.13;;;23.00;92.10;;;;;;6314552;27;89367;-72
2023/06/07 03:54:22;;;;;;;9.70;8.70;;;22.90;92.10;;;;;;6315432;27;89114;-72
2023/06/07 03:57:25;;;;;;;8.80;8.00;;;22.90;92.10;;;;;;6320870;27;88256;-71
2023/06/07 04:00:27;;;;;;;8.75;7.95;;;22.90;92.10;;;;;;6314165;27;89157;-71
2023/06/07 04:03:31;;;;;;;9.05;8.20;;;22.90;92.10;;;;;;6291905;27;89190;-71
2023/06/07 04:06:34;;;;;;;9.02;8.23;;;22.90;92.10;;;;;;6315776;27;87044;-72
2023/06/07 04:09:36;;;;;;;9.02;8.18;;;22.90;92.10;;;;;;6332465;27;89455;-72
2023/06/07 04:12:39;;;;;;;8.90;8.10;;;22.90;92.10;;;;;;6320402;27;88991;-71
2023/06/07 04:15:41;;;;;;;8.77;7.97;;;22.90;92.10;;;;;;6322415;27;89966;-71
2023/06/07 04:18:43;;;;;;;8.40;7.60;;;22.90;92.00;;;;;;6319148;27;89085;-72
2023/06/07 04:21:45;;;;;;;8.90;8.10;;;22.90;92.00;;;;;;6330881;27;89068;-72
2023/06/07 04:24:47;;;;;;;9.30;8.40;;;22.90;92.10;;;;;;6319038;27;89361;-71
2023/06/07 04:27:51;;;;;;;8.77;7.97;;;22.90;92.10;;;;;;6311884;27;89044;-72
2023/06/07 04:30:53;;;;;;;8.80;8.00;;;22.90;92.10;;;;;;6312202;27;88202;-72
2023/06/07 04:33:57;;;;;;;8.45;7.75;;;22.90;92.20;;;;;;6304339;27;87378;-71
2023/06/07 04:37:03;;;;;;;9.32;8.43;;;22.90;92.20;;;;;;6322678;27;88612;-71
2023/06/07 04:40:07;;;;;;;9.18;8.38;;;22.90;92.20;;;;;;6328915;27;89143;-72
2023/06/07 04:43:12;;;;;;;8.77;7.88;;;22.90;92.20;;;;;;6317816;27;89119;-72
2023/06/07 04:46:15;;;;;;;8.68;7.88;;;22.90;92.40;;;;;;6315081;27;91281;-72
2023/06/07 04:49:18;;;;;;;8.95;8.10;;;22.90;92.30;;;;;;6328608;27;88847;-72
2023/06/07 04:52:20;;;;;;;9.35;8.00;;;22.90;92.20;;;;;;6319420;27;89070;-73
2023/06/07 04:55:22;;;;;;;9.23;7.72;;;22.90;92.80;;;;;;6319457;27;89383;-72
2023/06/07 04:58:25;;;;;;;7.78;7.07;;;22.80;92.80;;;;;;6313349;27;89021;-72
2023/06/07 05:01:28;;;;;;;7.82;7.15;;;22.90;92.90;;;;;;6327281;27;89437;-72
2023/06/07 05:04:30;;;;;;;7.85;7.15;;;22.90;92.80;;;;;;6326126;27;89027;-72
2023/06/07 05:07:33;;;;;;;7.63;6.93;;;22.90;93.00;;;;;;6331593;27;88290;-72
2023/06/07 05:10:35;;;;;;;8.30;7.10;;;22.90;92.70;;;;;;6312153;27;89395;-72
2023/06/07 05:13:39;;;;;;;8.07;7.28;;;22.90;92.70;;;;;;6321631;27;89094;-71
2023/06/07 05:16:43;;;;;;;8.27;7.40;;;22.90;92.70;;;;;;6322619;27;90124;-71
2023/06/07 05:19:45;;;;;;;7.60;6.90;;;22.90;92.80;;;;;;6331233;27;89058;-72
2023/06/07 05:22:47;;;;;;;8.10;7.30;;;22.90;92.80;;;;;;6316336;27;89156;-72
2023/06/07 05:25:49;;;;;;;7.85;7.13;;;22.90;92.80;;;;;;6316393;27;89266;-72
2023/06/07 05:28:52;;;;;;;8.02;7.32;;;22.80;92.80;;;;;;6307701;27;88002;-72
2023/06/07 05:31:55;;;;;;;7.75;7.05;;;22.90;92.90;;;;;;6320047;27;89181;-72
2023/06/07 05:34:57;;;;;;;7.97;7.28;;;22.90;92.90;;;;;;6320229;27;88966;-72
2023/06/07 05:37:59;;;;;;;8.07;7.22;;;22.90;93.00;;;;;;6318528;27;87276;-72
2023/06/07 05:41:01;;;;;;;7.82;6.95;;;22.90;92.90;;;;;;6307757;27;89141;-71
2023/06/07 05:44:05;;;;;;;7.57;6.82;;;22.90;93.00;;;;;;6280975;27;89093;-72
2023/06/07 05:47:08;;;;;;;7.85;7.07;;;22.90;93.00;;;;;;6300039;27;90047;-72
2023/06/07 05:50:11;;;;;;;7.57;6.88;;;22.90;93.00;;;;;;6310989;27;89096;-72
2023/06/07 05:53:13;;;;;;;8.70;7.40;;;22.90;93.00;;;;;;6308458;27;88831;-71
2023/06/07 05:56:16;;;;;;;7.72;7.00;;;22.90;93.00;;;;;;6298089;27;88029;-72
2023/06/07 05:59:20;;;;;;;7.47;6.70;;;22.90;93.00;;;;;;6281085;27;89074;-72
2023/06/07 06:02:23;;;;;;;7.53;6.72;;;22.90;93.10;;;;;;6280624;27;89477;-72
2023/06/07 06:05:27;;;;;;;7.80;7.10;;;22.90;93.10;;;;;;6293855;27;87922;-72
2023/06/07 06:08:29;;;;;;;7.45;6.75;;;22.90;93.10;;;;;;6301850;27;88114;-72
2023/06/07 06:11:31;;;;;;;7.25;6.55;;;22.90;93.10;;;;;;6290153;27;89111;-72
2023/06/07 06:14:34;;;;;;;8.52;7.18;;;22.90;93.10;;;;;;6301866;27;89397;-72
2023/06/07 06:17:36;;;;;;;7.35;6.50;;;22.90;93.20;;;;;;6303241;27;90234;-72
2023/06/07 06:20:38;;;;;;;7.13;6.53;;;22.90;93.20;;;;;;6292929;27;89659;-72
2023/06/07 06:23:40;;;;;;;8.20;7.05;;;22.80;93.20;;;;;;6303323;27;88750;-72
2023/06/07 06:26:42;;;;;;;7.47;6.88;;;22.90;93.20;;;;;;6295795;27;89035;-72
2023/06/07 06:29:46;;;;;;;6.95;6.25;;;22.90;93.20;;;;;;6279932;27;89013;-72
2023/06/07 06:32:48;;;;;;;7.20;6.50;;;22.80;93.20;;;;;;6287134;27;89071;-72
2023/06/07 06:35:49;;;;;;;7.20;6.60;;;22.80;93.20;;;;;;6297114;27;87992;-72
2023/06/07 06:38:52;;;;;;;7.40;6.38;;;22.90;93.20;;;;;;6298234;27;88514;-72
2023/06/07 06:41:54;;;;;;;6.72;6.13;;;22.90;93.20;;;;;;6331806;27;89881;-72
2023/06/07 06:44:57;;;;;;;7.25;6.55;;;22.90;93.20;;;;;;6310013;27;89142;-72
2023/06/07 06:47:59;;;;;;;7.22;6.53;;;22.80;93.20;;;;;;6332882;27;90140;-72
2023/06/07 06:51:01;;;;;;;7.05;6.40;;;22.90;93.20;;;;;;6310131;27;89869;-72
2023/06/07 06:54:04;;;;;;;7.10;6.47;;;22.90;93.30;;;;;;6327786;27;89067;-72
2023/06/07 06:57:08;;;;;;;7.47;6.78;;;22.90;93.30;;;;;;6323310;27;89074;-73
2023/06/07 07:00:12;;;;;;;7.15;6.45;;;22.90;93.30;;;;;;6323652;27;89365;-72
2023/06/07 07:03:15;;;;;;;7.10;6.47;;;22.90;93.30;;;;;;6315923;27;88970;-73
2023/06/07 07:06:18;;;;;;;7.32;6.72;;;22.90;93.20;;;;;;6316667;27;89127;-73
2023/06/07 07:09:20;;;;;;;6.82;6.22;;;22.90;93.20;;;;;;6308811;27;88287;-72
2023/06/07 07:12:22;;;;;;;8.63;7.25;;;22.90;93.20;;;;;;6321872;27;89791;-71
2023/06/07 07:15:27;;;;;;;7.07;6.40;;;22.90;93.20;;;;;;6322612;27;89076;-72
2023/06/07 07:18:29;;;;;;;7.13;6.45;;;22.90;93.10;;;;;;6309287;27;90026;-72
2023/06/07 07:21:31;;;;;;;6.70;6.10;;;22.90;93.10;;;;;;6316221;27;87916;-73
2023/06/07 07:24:33;;;;;;;7.40;6.70;;;23.00;93.00;;;;;;6314044;27;89380;-73
2023/06/07 07:27:35;;;;;;;7.13;6.53;;;22.90;93.00;;;;;;6322259;27;89036;-72
2023/06/07 07:30:39;;;;;;;6.43;5.90;;;23.00;92.90;;;;;;6308437;27;89101;-72
2023/06/07 07:33:41;;;;;;;7.45;6.75;;;22.90;92.90;;;;;;6309270;27;88029;-72
2023/06/07 07:36:43;;;;;;;6.63;6.03;;;22.90;92.90;;;;;;6319881;27;89066;-72
2023/06/07 07:39:45;;;;;;;6.70;6.10;;;23.00;92.90;;;;;;6329096;27;88519;-72
2023/06/07 07:42:47;;;;;;;6.60;6.00;;;23.00;92.90;;;;;;6321516;27;89202;-72
2023/06/07 07:45:51;;;;;;;6.78;6.07;;;23.00;92.90;;;;;;6329344;27;88774;-72
2023/06/07 07:48:53;;;;;;;6.47;5.88;;;23.00;92.90;;;;;;6314249;27;90233;-72
2023/06/07 07:51:55;;;;;;;6.57;5.97;;;23.00;92.90;;;;;;6326382;27;88987;-72
2023/06/07 07:54:57;;;;;;;6.57;5.97;;;23.00;92.90;;;;;;6322243;27;89069;-72
2023/06/07 07:57:59;;;;;;;6.45;5.85;;;22.90;92.80;;;;;;6308249;27;89503;-72
2023/06/07 08:01:02;;;;;;;7.05;6.35;;;23.00;92.80;;;;;;6308471;27;89111;-72
2023/06/07 08:04:05;;;;;;;6.45;5.88;;;23.00;92.70;;;;;;6322268;27;89205;-72
2023/06/07 08:07:07;;;;;;;6.47;5.93;;;23.00;92.70;;;;;;6320305;27;89187;-72
2023/06/07 08:10:10;;;;;;;6.72;6.13;;;23.00;92.70;;;;;;6309280;27;88433;-72
2023/06/07 08:13:12;;;;;;;6.80;6.20;;;23.00;92.80;;;;;;6325504;27;89192;-72
2023/06/07 08:16:16;;;;;;;6.57;5.97;;;23.00;92.80;;;;;;6332809;27;89138;-72
2023/06/07 08:19:18;;;;;;;7.40;6.50;;;23.00;93.00;;;;;;6316479;27;88956;-72
2023/06/07 08:22:20;;;;;;;6.30;5.72;;;23.00;93.10;;;;;;6321525;27;89135;-72
2023/06/07 08:25:22;;;;;;;6.93;6.22;;;23.00;93.10;;;;;;6317753;27;89049;-72
2023/06/07 08:28:24;;;;;;;6.35;5.78;;;23.00;93.20;;;;;;6301082;27;89070;-72
2023/06/07 08:31:28;;;;;;;6.05;5.50;;;23.00;93.20;;;;;;6315877;27;89574;-72
2023/06/07 08:34:31;;;;;;;6.60;6.00;;;23.00;93.20;;;;;;6322077;27;89032;-72
2023/06/07 08:37:33;;;;;;;6.03;5.53;;;23.00;93.20;;;;;;6324957;27;89363;-72
2023/06/07 08:40:36;;;;;;;6.43;5.82;;;23.00;93.30;;;;;;6320281;27;88287;-72
2023/06/07 08:43:38;;;;;;;6.10;5.50;;;23.00;93.30;;;;;;6320241;27;89521;-72
2023/06/07 08:46:43;;;;;;;6.60;6.03;;;23.00;93.20;;;;;;6321184;27;89075;-72
2023/06/07 08:49:45;;;;;;;5.95;5.43;;;23.00;93.20;;;;;;6322980;27;91053;-72
2023/06/07 08:52:51;;;;;;;6.50;5.90;;;23.00;93.10;;;;;;6321077;27;89153;-72
2023/06/07 08:55:55;;;;;;;6.05;5.50;;;23.00;93.00;;;;;;6318728;27;89144;-71
2023/06/07 08:58:57;;;;;;;5.88;5.38;;;23.00;93.00;;;;;;6299990;27;89153;-71
2023/06/07 09:02:02;;;;;;;6.03;5.53;;;23.00;92.90;;;;;;6306782;27;88062;-72
2023/06/07 09:05:05;;;;;;;6.25;5.75;;;23.00;92.90;;;;;;6307699;27;89432;-72
2023/06/07 09:08:07;;;;;;;6.53;5.95;;;23.00;93.00;;;;;;6327068;27;89138;-73
2023/06/07 09:11:09;;;;;;;6.28;5.68;;;23.00;93.10;;;;;;6327335;27;88461;-73
2023/06/07 09:14:13;;;;;;;6.53;5.75;;;23.00;93.30;;;;;;6319706;27;89195;-72
2023/06/07 09:17:16;;;;;;;6.25;5.75;;;23.00;93.40;;;;;;6320045;27;91116;-72
2023/06/07 09:20:21;;;;;;;6.60;6.00;;;23.00;93.40;;;;;;6319445;27;89998;-72
2023/06/07 09:23:22;;;;;;;6.05;5.55;;;23.00;93.40;;;;;;6320689;27;88949;-72
2023/06/07 09:26:36;;;;;;;6.15;5.65;;;23.00;93.40;;;;;;6315350;27;88981;-72
2023/06/07 09:29:43;;;;;;;5.93;5.40;;;23.00;93.40;;;;;;6326410;27;89285;-72
2023/06/07 09:32:46;;;;;;;6.07;5.57;;;23.00;93.30;;;;;;6313515;27;88828;-72
2023/06/07 09:36:03;;;;;;;6.65;6.05;;;23.00;93.20;;;;;;6318545;27;89088;-72
2023/06/07 09:39:20;;;;;;;6.05;5.55;;;23.00;93.20;;;;;;6326482;27;89116;-72
2023/06/07 09:42:22;;;;;;;6.32;5.82;;;23.00;93.20;;;;;;6311324;27;88344;-72
2023/06/07 09:45:25;;;;;;;5.90;5.40;;;23.00;93.20;;;;;;6311631;27;89059;-73
2023/06/07 09:48:28;;;;;;;6.28;5.78;;;23.00;93.20;;;;;;6307431;27;89081;-72
2023/06/07 09:51:39;;;;;;;6.05;5.55;;;23.00;93.20;;;;;;6319471;27;89917;-72
2023/06/07 09:54:42;;;;;;;6.00;5.50;;;23.00;93.20;;;;;;6327313;27;89051;-72
2023/06/07 09:57:45;;;;;;;7.00;6.40;;;23.00;93.10;;;;;;6329259;27;89059;-73
2023/06/07 10:00:47;;;;;;;6.55;6.05;;;23.00;93.30;;;;;;6306684;27;89101;-72
2023/06/07 10:03:50;;;;;;;6.70;6.10;;;23.00;93.60;;;;;;6318508;27;89191;-72
2023/06/07 10:06:58;;;;;;;6.50;5.97;;;23.00;93.70;;;;;;6308219;27;87907;-72
2023/06/07 10:10:01;;;;;;;6.40;5.80;;;23.00;93.80;;;;;;6318458;27;89042;-72
2023/06/07 10:13:05;;;;;;;6.18;5.68;;;23.00;93.80;;;;;;6317739;27;88319;-72
2023/06/07 10:16:10;;;;;;;8.27;6.70;;;23.00;94.10;;;;;;6331158;27;89098;-72
2023/06/07 10:19:18;;;;;;;6.43;5.85;;;23.00;93.60;;;;;;6323464;27;88937;-72
2023/06/07 10:22:24;;;;;;;6.50;5.93;;;23.00;93.60;;;;;;6310061;27;90459;-72
2023/06/07 10:25:30;;;;;;;6.15;5.55;;;23.00;93.60;;;;;;6311955;27;89084;-72
2023/06/07 10:28:37;;;;;;;6.50;5.93;;;23.00;93.50;;;;;;6321683;27;89439;-72
2023/06/07 10:31:47;;;;;;;6.22;5.63;;;23.00;93.40;;;;;;6335165;27;89148;-72
2023/06/07 10:34:53;;;;;;;6.10;5.60;;;23.00;93.30;;;;;;6321723;27;89105;-72
2023/06/07 10:37:56;;;;;;;6.15;5.65;;;23.00;93.30;;;;;;6323886;27;89082;-72
2023/06/07 10:40:59;;;;;;;5.97;5.47;;;23.00;93.20;;;;;;6324794;27;87986;-72
2023/06/07 10:44:02;;;;;;;6.22;5.63;;;23.00;93.10;;;;;;6313774;27;88340;-72
2023/06/07 10:47:26;;;;;;;6.20;5.70;;;23.00;93.00;;;;;;6321310;27;89223;-72
2023/06/07 10:50:49;;;;;;;6.00;5.50;;;23.00;93.00;;;;;;6322770;27;87890;-72
2023/06/07 10:53:52;;;;;;;6.53;5.93;;;23.00;93.00;;;;;;6322418;27;89995;-71
2023/06/07 10:56:54;;;;;;;6.30;5.80;;;23.00;93.30;;;;;;6323422;27;87932;-73
2023/06/07 11:00:25;;;;;;;6.20;5.70;;;23.00;93.40;;;;;;6300946;27;89399;-72
2023/06/07 11:03:43;;;;;;;6.18;5.68;;;23.00;93.40;;;;;;6324090;27;89102;-73
2023/06/07 11:07:18;;;;;;;5.88;5.38;;;23.00;93.40;;;;;;6310374;27;89777;-72
2023/06/07 11:10:35;;;;;;;6.07;5.57;;;23.00;93.20;;;;;;6334333;27;87451;-72
2023/06/07 11:14:11;;;;;;;6.22;5.72;;;23.00;93.20;;;;;;6321113;27;90104;-72
2023/06/07 11:17:51;;;;;;;6.00;5.50;;;23.00;93.20;;;;;;6313078;27;87334;-73
2023/06/07 11:20:53;;;;;;;6.78;6.18;;;23.00;93.20;;;;;;6322580;27;89392;-73
2023/06/07 11:27:25;;;;;;;6.25;5.65;;;23.00;93.10;;;;;;6257170;28;80329;-74
2023/06/07 11:30:27;;;;;;;6.07;5.55;;;23.00;93.00;;;;;;6218434;28;81130;-72
2023/06/07 11:33:30;;;;;;;5.40;5.00;;;23.00;92.90;;;;;;6230989;28;81182;-74
2023/06/07 11:36:34;;;;;;;5.32;4.93;;;23.00;92.80;;;;;;6223252;28;82303;-74
2023/06/07 11:39:36;;;;;;;5.78;5.28;;;23.00;92.70;;;;;;6231492;28;82170;-73
2023/06/07 11:42:40;;;;;;;5.65;5.22;;;23.00;92.70;;;;;;6220082;28;82417;-73
2023/06/07 11:45:43;;;;;;;6.28;5.47;;;23.00;92.60;;;;;;6227051;28;82394;-73
2023/06/07 11:48:45;;;;;;;5.57;5.07;;;23.00;92.80;;;;;;6230836;28;82254;-73
2023/06/07 11:51:49;;;;;;;5.45;4.95;;;23.00;92.80;;;;;;6217870;28;82410;-73
2023/06/07 11:54:51;;;;;;;5.47;4.97;;;23.00;92.80;;;;;;6230299;28;82430;-73
2023/06/07 11:57:55;;;;;;;5.30;4.80;;;23.00;92.50;;;;;;6228581;28;82568;-73
2023/06/07 12:00:58;;;;;;;5.80;5.20;;;23.00;92.20;;;;;;6229177;28;81557;-73
2023/06/07 12:04:00;;;;;;;5.68;5.07;;;23.10;92.20;;;;;;6229975;28;82275;-73
2023/06/07 12:07:18;;;;;;;5.80;5.30;;;23.10;92.20;;;;;;6228445;28;82397;-74
2023/06/07 12:10:25;;;;;;;5.60;5.10;;;23.10;92.30;;;;;;6229561;28;82597;-73
2023/06/07 12:13:31;;;;;;;5.80;5.30;;;23.10;92.30;;;;;;6212631;28;82100;-72
2023/06/07 12:16:33;;;;;;;5.43;5.03;;;23.00;92.40;;;;;;6227760;28;82364;-73
2023/06/07 12:19:35;;;;;;;5.65;5.20;;;23.00;92.40;;;;;;6228967;28;82306;-73
2023/06/07 12:22:37;;;;;;;6.60;5.90;;;23.10;92.40;;;;;;6216525;28;81516;-73
2023/06/07 12:25:39;;;;;;;5.40;5.00;;;23.00;92.40;;;;;;6229207;28;82220;-72
2023/06/07 12:28:43;;;;;;;6.18;5.57;;;23.10;92.30;;;;;;6228180;28;82378;-73
2023/06/07 12:31:46;;;;;;;5.40;5.00;;;23.10;92.20;;;;;;6216570;28;81525;-73
2023/06/07 12:34:48;;;;;;;5.55;5.10;;;23.10;92.10;;;;;;6228539;28;81212;-73
2023/06/07 12:37:50;;;;;;;5.60;5.10;;;23.00;92.10;;;;;;6210248;28;82335;-72
2023/06/07 12:40:53;;;;;;;5.38;4.97;;;23.00;92.20;;;;;;6210839;28;82357;-73
2023/06/07 12:43:58;;;;;;;5.15;4.75;;;23.00;92.20;;;;;;6211964;28;82361;-72
2023/06/07 12:47:00;;;;;;;5.43;4.93;;;23.00;92.20;;;;;;6210400;28;81485;-75
2023/06/07 12:50:03;;;;;;;5.43;4.93;;;23.00;92.20;;;;;;6212886;28;81216;-73
2023/06/07 12:53:05;;;;;;;5.45;4.95;;;23.00;92.50;;;;;;6206581;28;82461;-73
2023/06/07 12:56:07;;;;;;;5.45;4.93;;;23.00;92.60;;;;;;6205091;28;82574;-70
2023/06/07 12:59:12;;;;;;;5.30;4.88;;;23.00;92.50;;;;;;6197521;28;82999;-70
2023/06/07 13:02:14;;;;;;;6.82;5.25;;;23.10;92.50;;;;;;6204219;28;82190;-70
2023/06/07 13:05:16;;;;;;;6.30;5.70;;;23.10;92.60;;;;;;6209894;28;82058;-70
2023/06/07 13:08:18;;;;;;;6.43;5.82;;;23.00;92.80;;;;;;6208247;28;81245;-70
2023/06/07 13:11:21;;;;;;;6.47;5.88;;;23.10;93.00;;;;;;6197241;28;82546;-70
2023/06/07 13:14:24;;;;;;;6.63;6.03;;;23.10;92.90;;;;;;6211679;28;81249;-70
2023/06/07 13:17:26;;;;;;;7.00;6.30;;;23.00;92.90;;;;;;6197238;28;82401;-70
2023/06/07 13:20:28;;;;;;;6.38;5.78;;;23.00;92.90;;;;;;6189990;28;82285;-70
2023/06/07 13:23:30;;;;;;;6.57;5.97;;;23.10;93.00;;;;;;6199587;28;82655;-70
2023/06/07 13:26:33;;;;;;;6.20;5.60;;;23.10;93.00;;;;;;6201391;28;82313;-72
2023/06/07 13:29:36;;;;;;;6.70;5.93;;;23.10;93.10;;;;;;6196332;28;82314;-73
2023/06/07 13:32:38;;;;;;;7.88;6.10;;;23.10;93.50;;;;;;6210496;28;82486;-73
2023/06/07 13:35:40;;;;;;;8.57;5.40;;;23.10;94.00;;;;;;6212300;28;82395;-73
2023/06/07 13:38:42;;;;;;;8.63;5.65;;;23.10;93.90;;;;;;6210494;28;82869;-74
2023/06/07 13:41:44;;;;;;;7.05;5.88;;;23.10;93.70;;;;;;6209018;28;82324;-73
2023/06/07 13:44:48;;;;;;;8.05;5.38;;;23.10;93.70;;;;;;6210217;28;83379;-73
2023/06/07 13:47:50;;;;;;;6.00;5.38;;;23.10;93.60;;;;;;6211670;28;82289;-73
2023/06/07 13:50:52;;;;;;;6.05;5.40;;;23.10;93.40;;;;;;6209197;28;82298;-72
2023/06/07 13:53:54;;;;;;;6.75;5.38;;;23.10;93.20;;;;;;6210279;28;82313;-72
2023/06/07 13:56:56;;;;;;;6.75;5.20;;;23.10;93.10;;;;;;6191391;28;81549;-73
2023/06/07 13:59:59;;;;;;;6.35;5.28;;;23.10;92.80;;;;;;6206131;28;82575;-72
2023/06/07 14:03:02;;;;;;;6.88;5.18;;;23.10;92.80;;;;;;6209109;28;82336;-73
2023/06/07 14:06:04;;;;;;;7.18;5.63;;;23.10;92.70;;;;;;6210603;28;82377;-73
2023/06/07 14:09:06;;;;;;;6.10;5.50;;;23.10;92.70;;;;;;6209886;28;82318;-73
2023/06/07 14:12:11;;;;;;;8.00;5.72;;;23.10;92.80;;;;;;6198678;28;82296;-74
2023/06/07 14:15:14;;;;;;;6.47;5.55;;;23.10;92.80;;;;;;6211521;28;82347;-73
2023/06/07 14:18:16;;;;;;;7.45;5.53;;;23.10;92.90;;;;;;6200451;28;82646;-74
2023/06/07 14:21:18;;;;;;;6.00;5.50;;;23.10;93.00;;;;;;6200195;28;82359;-73
2023/06/07 14:24:20;;;;;;;7.10;5.20;;;23.10;93.10;;;;;;6206545;28;82330;-73
2023/06/07 14:27:22;;;;;;;7.03;5.30;;;23.10;93.10;;;;;;6161602;28;82268;-73
2023/06/07 14:30:25;;;;;;;6.18;5.57;;;23.10;93.00;;;;;;6148519;28;82336;-73
2023/06/07 14:33:27;;;;;;;7.57;5.43;;;23.10;92.90;;;;;;6161556;28;82542;-74
2023/06/07 14:36:29;;;;;;;6.10;5.60;;;23.10;92.90;;;;;;6158549;28;82720;-74
2023/06/07 14:39:31;;;;;;;6.90;5.65;;;23.10;92.90;;;;;;6162359;28;81105;-73
2023/06/07 14:42:33;;;;;;;6.00;5.40;;;23.10;92.90;;;;;;6148534;28;82483;-73
2023/06/07 14:45:37;;;;;;;6.95;5.20;;;23.10;92.90;;;;;;6161244;28;82311;-73
2023/06/07 14:48:39;;;;;;;5.80;5.30;;;23.10;92.80;;;;;;6160971;28;82410;-73
2023/06/07 14:51:41;;;;;;;6.35;5.75;;;23.10;92.80;;;;;;6161392;28;83663;-73
2023/06/07 14:54:43;;;;;;;5.82;5.20;;;23.10;92.80;;;;;;6159896;28;83503;-73
2023/06/07 14:57:45;;;;;;;6.97;6.00;;;23.10;92.80;;;;;;6160791;28;82389;-73
2023/06/07 15:00:49;;;;;;;5.78;5.28;;;23.10;92.80;;;;;;6161055;28;82415;-73
2023/06/07 15:03:51;;;;;;;6.07;5.25;;;23.10;92.80;;;;;;6149229;28;82220;-74
2023/06/07 15:06:53;;;;;;;5.70;5.20;;;23.10;92.60;;;;;;6140052;28;81249;-74
2023/06/07 15:09:56;;;;;;;5.70;5.20;;;23.10;92.50;;;;;;6157466;28;82289;-73
2023/06/07 15:12:58;;;;;;;5.78;5.25;;;23.10;92.50;;;;;;6158047;28;83276;-73
2023/06/07 15:16:01;;;;;;;5.75;5.15;;;23.10;92.50;;;;;;6160980;28;82348;-73
2023/06/07 15:19:03;;;;;;;5.70;5.20;;;23.10;92.50;;;;;;6160191;28;82740;-74
2023/06/07 15:22:05;;;;;;;6.45;5.20;;;23.10;92.50;;;;;;6159466;28;82224;-73
2023/06/07 15:25:08;;;;;;;5.63;5.13;;;23.10;92.40;;;;;;6171558;28;82276;-72
2023/06/07 15:28:10;;;;;;;5.30;4.90;;;23.10;92.40;;;;;;6197754;28;82324;-73
2023/06/07 15:31:14;;;;;;;5.60;5.10;;;23.10;92.00;;;;;;6207805;28;80910;-72
2023/06/07 15:34:16;;;;;;;5.47;4.97;;;23.10;91.90;;;;;;6207061;28;82575;-73
2023/06/07 15:37:18;;;;;;;4.88;4.47;;;23.10;91.80;;;;;;6209919;28;80981;-72
2023/06/07 15:40:19;;;;;;;5.38;4.88;;;23.10;91.70;;;;;;6208944;28;82411;-72
2023/06/07 15:43:21;;;;;;;5.80;5.18;;;23.10;91.60;;;;;;6209226;28;81466;-73
2023/06/07 15:46:25;;;;;;;6.28;5.07;;;23.10;91.50;;;;;;6208803;28;82426;-73
2023/06/07 15:49:27;;;;;;;4.93;4.43;;;23.10;91.60;;;;;;6210283;28;82337;-73
2023/06/07 15:52:29;;;;;;;5.25;4.75;;;23.20;91.70;;;;;;6207440;28;85395;-73
2023/06/07 15:55:31;;;;;;;4.97;4.57;;;23.10;91.70;;;;;;6209513;28;82390;-73
2023/06/07 15:58:33;;;;;;;5.13;4.60;;;23.10;91.80;;;;;;6209335;28;81217;-73